sensor_id;sensor_type;location;lat;lon;timestamp;P1;durP1;ratioP1;P2;durP2;ratioP2
12980;SDS011;6555;50.468;8.480;2022-10-13T00:01:14;2.27;;;1.87;;
12980;SDS011;6555;50.468;8.480;2022-10-13T00:06:20;2.87;;;2.23;;
12980;SDS011;6555;50.468;8.480;2022-10-13T00:11:24;3.40;;;2.70;;
12980;SDS011;6555;50.468;8.480;2022-10-13T00:16:31;2.63;;;2.43;;
12980;SDS011;6555;50.468;8.480;2022-10-13T00:21:34;3.20;;;2.30;;
12980;SDS011;6555;50.468;8.480;2022-10-13T00:26:37;1.83;;;1.73;;
12980;SDS011;6555;50.468;8.480;2022-10-13T00:31:42;2.00;;;1.73;;
12980;SDS011;6555;50.468;8.480;2022-10-13T00:36:45;1.77;;;1.67;;
12980;SDS011;6555;50.468;8.480;2022-10-13T00:41:48;1.90;;;1.80;;
12980;SDS011;6555;50.468;8.480;2022-10-13T00:46:52;1.37;;;1.27;;
12980;SDS011;6555;50.468;8.480;2022-10-13T00:51:55;1.63;;;1.53;;
12980;SDS011;6555;50.468;8.480;2022-10-13T00:56:58;1.40;;;1.30;;
12980;SDS011;6555;50.468;8.480;2022-10-13T01:02:02;1.43;;;1.33;;
12980;SDS011;6555;50.468;8.480;2022-10-13T01:07:06;2.17;;;1.70;;
12980;SDS011;6555;50.468;8.480;2022-10-13T01:12:12;1.53;;;1.43;;
12980;SDS011;6555;50.468;8.480;2022-10-13T01:17:29;1.63;;;1.53;;
12980;SDS011;6555;50.468;8.480;2022-10-13T01:22:45;1.93;;;1.60;;
12980;SDS011;6555;50.468;8.480;2022-10-13T01:28:12;1.13;;;1.07;;
12980;SDS011;6555;50.468;8.480;2022-10-13T01:33:27;1.40;;;1.30;;
12980;SDS011;6555;50.468;8.480;2022-10-13T01:38:36;1.50;;;1.40;;
12980;SDS011;6555;50.468;8.480;2022-10-13T01:43:42;1.73;;;1.63;;
12980;SDS011;6555;50.468;8.480;2022-10-13T01:48:49;1.50;;;1.40;;
12980;SDS011;6555;50.468;8.480;2022-10-13T01:53:55;1.40;;;1.30;;
12980;SDS011;6555;50.468;8.480;2022-10-13T01:58:59;1.97;;;1.60;;
12980;SDS011;6555;50.468;8.480;2022-10-13T02:04:11;1.77;;;1.67;;
12980;SDS011;6555;50.468;8.480;2022-10-13T02:09:23;7.43;;;3.53;;
12980;SDS011;6555;50.468;8.480;2022-10-13T02:14:35;14.80;;;7.00;;
12980;SDS011;6555;50.468;8.480;2022-10-13T02:19:43;19.53;;;7.50;;
12980;SDS011;6555;50.468;8.480;2022-10-13T02:24:46;6.70;;;3.33;;
12980;SDS011;6555;50.468;8.480;2022-10-13T02:29:50;2.07;;;1.87;;
12980;SDS011;6555;50.468;8.480;2022-10-13T02:34:55;3.97;;;1.83;;
12980;SDS011;6555;50.468;8.480;2022-10-13T02:39:58;2.23;;;1.90;;
12980;SDS011;6555;50.468;8.480;2022-10-13T02:45:01;1.53;;;1.43;;
12980;SDS011;6555;50.468;8.480;2022-10-13T02:50:07;2.03;;;1.70;;
12980;SDS011;6555;50.468;8.480;2022-10-13T02:55:10;1.67;;;1.50;;
12980;SDS011;6555;50.468;8.480;2022-10-13T03:00:15;1.20;;;1.10;;
12980;SDS011;6555;50.468;8.480;2022-10-13T03:05:19;1.23;;;1.13;;
12980;SDS011;6555;50.468;8.480;2022-10-13T03:10:22;3.03;;;1.47;;
12980;SDS011;6555;50.468;8.480;2022-10-13T03:15:28;1.47;;;1.37;;
12980;SDS011;6555;50.468;8.480;2022-10-13T03:20:33;1.43;;;1.30;;
12980;SDS011;6555;50.468;8.480;2022-10-13T03:25:37;1.50;;;1.40;;
12980;SDS011;6555;50.468;8.480;2022-10-13T03:30:40;2.23;;;1.83;;
12980;SDS011;6555;50.468;8.480;2022-10-13T03:35:45;2.47;;;1.60;;
12980;SDS011;6555;50.468;8.480;2022-10-13T03:40:47;2.37;;;2.17;;
12980;SDS011;6555;50.468;8.480;2022-10-13T03:45:54;1.83;;;1.63;;
12980;SDS011;6555;50.468;8.480;2022-10-13T03:50:59;2.27;;;2.07;;
12980;SDS011;6555;50.468;8.480;2022-10-13T03:56:05;2.60;;;2.17;;
12980;SDS011;6555;50.468;8.480;2022-10-13T04:01:17;2.40;;;2.00;;
12980;SDS011;6555;50.468;8.480;2022-10-13T04:06:23;3.00;;;2.27;;
12980;SDS011;6555;50.468;8.480;2022-10-13T04:11:27;2.00;;;1.80;;
12980;SDS011;6555;50.468;8.480;2022-10-13T04:16:30;2.20;;;1.70;;
12980;SDS011;6555;50.468;8.480;2022-10-13T04:21:36;1.80;;;1.70;;
12980;SDS011;6555;50.468;8.480;2022-10-13T04:26:40;2.07;;;1.87;;
12980;SDS011;6555;50.468;8.480;2022-10-13T04:31:43;1.80;;;1.60;;
12980;SDS011;6555;50.468;8.480;2022-10-13T04:36:49;2.73;;;1.67;;
12980;SDS011;6555;50.468;8.480;2022-10-13T04:41:52;1.90;;;1.80;;
12980;SDS011;6555;50.468;8.480;2022-10-13T04:46:56;1.90;;;1.77;;
12980;SDS011;6555;50.468;8.480;2022-10-13T04:52:02;1.80;;;1.70;;
12980;SDS011;6555;50.468;8.480;2022-10-13T04:57:05;2.40;;;1.70;;
12980;SDS011;6555;50.468;8.480;2022-10-13T05:02:08;2.50;;;2.10;;
12980;SDS011;6555;50.468;8.480;2022-10-13T05:07:12;3.77;;;1.97;;
12980;SDS011;6555;50.468;8.480;2022-10-13T05:12:20;2.10;;;1.53;;
12980;SDS011;6555;50.468;8.480;2022-10-13T05:17:23;2.23;;;2.00;;
12980;SDS011;6555;50.468;8.480;2022-10-13T05:22:27;2.50;;;2.27;;
12980;SDS011;6555;50.468;8.480;2022-10-13T05:27:31;2.80;;;2.13;;
12980;SDS011;6555;50.468;8.480;2022-10-13T05:32:38;2.97;;;2.30;;
12980;SDS011;6555;50.468;8.480;2022-10-13T05:37:43;2.10;;;1.90;;
12980;SDS011;6555;50.468;8.480;2022-10-13T05:42:47;2.63;;;2.17;;
12980;SDS011;6555;50.468;8.480;2022-10-13T05:47:51;2.97;;;2.10;;
12980;SDS011;6555;50.468;8.480;2022-10-13T05:52:55;2.50;;;2.13;;
12980;SDS011;6555;50.468;8.480;2022-10-13T05:57:58;2.63;;;2.07;;
12980;SDS011;6555;50.468;8.480;2022-10-13T06:03:05;3.33;;;2.73;;
12980;SDS011;6555;50.468;8.480;2022-10-13T06:08:18;3.17;;;2.70;;
12980;SDS011;6555;50.468;8.480;2022-10-13T06:13:24;2.53;;;2.33;;
12980;SDS011;6555;50.468;8.480;2022-10-13T06:18:27;3.37;;;2.60;;
12980;SDS011;6555;50.468;8.480;2022-10-13T06:23:32;2.40;;;1.80;;
12980;SDS011;6555;50.468;8.480;2022-10-13T06:28:35;2.27;;;2.07;;
12980;SDS011;6555;50.468;8.480;2022-10-13T06:33:38;2.60;;;2.40;;
12980;SDS011;6555;50.468;8.480;2022-10-13T06:38:42;2.90;;;2.30;;
12980;SDS011;6555;50.468;8.480;2022-10-13T06:43:46;3.10;;;2.40;;
12980;SDS011;6555;50.468;8.480;2022-10-13T06:48:50;4.20;;;2.73;;
12980;SDS011;6555;50.468;8.480;2022-10-13T06:53:55;3.40;;;2.53;;
12980;SDS011;6555;50.468;8.480;2022-10-13T06:58:59;3.70;;;2.80;;
12980;SDS011;6555;50.468;8.480;2022-10-13T07:04:02;2.57;;;2.23;;
12980;SDS011;6555;50.468;8.480;2022-10-13T07:09:07;2.33;;;2.13;;
12980;SDS011;6555;50.468;8.480;2022-10-13T07:14:10;2.43;;;2.10;;
12980;SDS011;6555;50.468;8.480;2022-10-13T07:19:13;2.63;;;2.30;;
12980;SDS011;6555;50.468;8.480;2022-10-13T07:24:18;2.20;;;2.00;;
12980;SDS011;6555;50.468;8.480;2022-10-13T07:29:21;2.37;;;2.17;;
12980;SDS011;6555;50.468;8.480;2022-10-13T07:34:24;2.30;;;2.10;;
12980;SDS011;6555;50.468;8.480;2022-10-13T07:39:28;2.30;;;2.10;;
12980;SDS011;6555;50.468;8.480;2022-10-13T07:44:31;1.93;;;1.70;;
12980;SDS011;6555;50.468;8.480;2022-10-13T07:49:34;2.33;;;1.90;;
12980;SDS011;6555;50.468;8.480;2022-10-13T07:54:39;2.67;;;2.20;;
12980;SDS011;6555;50.468;8.480;2022-10-13T07:59:42;2.17;;;1.97;;
12980;SDS011;6555;50.468;8.480;2022-10-13T08:04:46;2.27;;;1.93;;
12980;SDS011;6555;50.468;8.480;2022-10-13T08:09:51;4.03;;;2.23;;
12980;SDS011;6555;50.468;8.480;2022-10-13T08:14:54;2.63;;;2.33;;
12980;SDS011;6555;50.468;8.480;2022-10-13T08:20:02;2.20;;;1.97;;
12980;SDS011;6555;50.468;8.480;2022-10-13T08:25:08;2.10;;;1.80;;
12980;SDS011;6555;50.468;8.480;2022-10-13T08:30:12;2.57;;;2.33;;
12980;SDS011;6555;50.468;8.480;2022-10-13T08:35:15;2.23;;;2.03;;
12980;SDS011;6555;50.468;8.480;2022-10-13T08:40:20;1.83;;;1.60;;
12980;SDS011;6555;50.468;8.480;2022-10-13T08:45:25;2.20;;;2.00;;
12980;SDS011;6555;50.468;8.480;2022-10-13T08:50:46;1.97;;;1.77;;
12980;SDS011;6555;50.468;8.480;2022-10-13T08:55:55;2.60;;;1.83;;
12980;SDS011;6555;50.468;8.480;2022-10-13T09:01:10;3.13;;;1.63;;
12980;SDS011;6555;50.468;8.480;2022-10-13T09:06:16;2.37;;;2.10;;
12980;SDS011;6555;50.468;8.480;2022-10-13T09:11:29;2.17;;;1.97;;
12980;SDS011;6555;50.468;8.480;2022-10-13T09:16:34;2.27;;;2.07;;
12980;SDS011;6555;50.468;8.480;2022-10-13T09:21:42;2.23;;;1.80;;
12980;SDS011;6555;50.468;8.480;2022-10-13T09:26:48;2.20;;;1.57;;
12980;SDS011;6555;50.468;8.480;2022-10-13T09:31:53;2.27;;;1.97;;
12980;SDS011;6555;50.468;8.480;2022-10-13T09:37:18;2.37;;;2.17;;
12980;SDS011;6555;50.468;8.480;2022-10-13T09:42:26;2.23;;;2.03;;
12980;SDS011;6555;50.468;8.480;2022-10-13T09:47:34;2.50;;;2.30;;
12980;SDS011;6555;50.468;8.480;2022-10-13T09:52:38;2.30;;;2.10;;
12980;SDS011;6555;50.468;8.480;2022-10-13T09:57:44;3.43;;;2.00;;
12980;SDS011;6555;50.468;8.480;2022-10-13T10:02:53;2.27;;;1.97;;
12980;SDS011;6555;50.468;8.480;2022-10-13T10:08:01;2.53;;;2.33;;
12980;SDS011;6555;50.468;8.480;2022-10-13T10:13:13;2.80;;;2.33;;
12980;SDS011;6555;50.468;8.480;2022-10-13T10:18:17;2.67;;;2.43;;
12980;SDS011;6555;50.468;8.480;2022-10-13T10:23:28;2.53;;;2.33;;
12980;SDS011;6555;50.468;8.480;2022-10-13T10:28:55;3.83;;;2.50;;
12980;SDS011;6555;50.468;8.480;2022-10-13T10:34:19;2.30;;;2.10;;
12980;SDS011;6555;50.468;8.480;2022-10-13T10:39:30;2.70;;;2.50;;
12980;SDS011;6555;50.468;8.480;2022-10-13T10:44:38;2.60;;;2.40;;
12980;SDS011;6555;50.468;8.480;2022-10-13T10:49:45;2.53;;;2.33;;
12980;SDS011;6555;50.468;8.480;2022-10-13T10:54:49;2.60;;;2.40;;
12980;SDS011;6555;50.468;8.480;2022-10-13T10:59:58;3.40;;;2.43;;
12980;SDS011;6555;50.468;8.480;2022-10-13T11:05:07;4.03;;;2.47;;
12980;SDS011;6555;50.468;8.480;2022-10-13T11:10:17;2.70;;;2.50;;
12980;SDS011;6555;50.468;8.480;2022-10-13T11:15:24;2.80;;;2.60;;
12980;SDS011;6555;50.468;8.480;2022-10-13T11:20:47;3.03;;;2.60;;
12980;SDS011;6555;50.468;8.480;2022-10-13T11:36:54;2.87;;;2.57;;
12980;SDS011;6555;50.468;8.480;2022-10-13T11:42:01;3.17;;;2.87;;
12980;SDS011;6555;50.468;8.480;2022-10-13T11:47:14;2.80;;;2.60;;
12980;SDS011;6555;50.468;8.480;2022-10-13T11:58:09;3.70;;;2.17;;
12980;SDS011;6555;50.468;8.480;2022-10-13T12:03:21;2.83;;;2.40;;
12980;SDS011;6555;50.468;8.480;2022-10-13T12:08:27;4.03;;;2.90;;
12980;SDS011;6555;50.468;8.480;2022-10-13T12:13:32;2.73;;;2.50;;
12980;SDS011;6555;50.468;8.480;2022-10-13T12:18:39;2.87;;;2.60;;
12980;SDS011;6555;50.468;8.480;2022-10-13T12:23:42;2.70;;;2.40;;
12980;SDS011;6555;50.468;8.480;2022-10-13T12:28:47;4.17;;;2.80;;
12980;SDS011;6555;50.468;8.480;2022-10-13T12:33:54;5.47;;;2.57;;
12980;SDS011;6555;50.468;8.480;2022-10-13T12:38:59;4.07;;;2.47;;
12980;SDS011;6555;50.468;8.480;2022-10-13T12:44:05;3.27;;;2.37;;
12980;SDS011;6555;50.468;8.480;2022-10-13T12:49:16;3.23;;;2.10;;
12980;SDS011;6555;50.468;8.480;2022-10-13T12:54:24;3.17;;;1.90;;
12980;SDS011;6555;50.468;8.480;2022-10-13T12:59:29;3.27;;;2.00;;
12980;SDS011;6555;50.468;8.480;2022-10-13T13:04:41;1.93;;;1.77;;
12980;SDS011;6555;50.468;8.480;2022-10-13T13:09:57;2.17;;;1.67;;
12980;SDS011;6555;50.468;8.480;2022-10-13T13:15:16;1.87;;;1.60;;
12980;SDS011;6555;50.468;8.480;2022-10-13T13:20:34;2.17;;;1.90;;
12980;SDS011;6555;50.468;8.480;2022-10-13T13:25:38;2.67;;;1.83;;
12980;SDS011;6555;50.468;8.480;2022-10-13T13:30:41;2.90;;;1.80;;
12980;SDS011;6555;50.468;8.480;2022-10-13T13:35:46;2.53;;;1.90;;
12980;SDS011;6555;50.468;8.480;2022-10-13T13:40:49;4.27;;;3.07;;
12980;SDS011;6555;50.468;8.480;2022-10-13T13:45:52;3.70;;;3.07;;
12980;SDS011;6555;50.468;8.480;2022-10-13T13:50:56;4.17;;;3.40;;
12980;SDS011;6555;50.468;8.480;2022-10-13T13:56:00;3.72;;;3.20;;
12980;SDS011;6555;50.468;8.480;2022-10-13T14:01:03;4.43;;;2.97;;
12980;SDS011;6555;50.468;8.480;2022-10-13T14:06:08;3.00;;;2.60;;
12980;SDS011;6555;50.468;8.480;2022-10-13T14:11:17;3.60;;;3.20;;
12980;SDS011;6555;50.468;8.480;2022-10-13T14:16:20;5.33;;;3.13;;
12980;SDS011;6555;50.468;8.480;2022-10-13T14:21:26;3.70;;;2.97;;
12980;SDS011;6555;50.468;8.480;2022-10-13T14:26:30;4.87;;;3.27;;
12980;SDS011;6555;50.468;8.480;2022-10-13T14:31:33;3.93;;;2.80;;
12980;SDS011;6555;50.468;8.480;2022-10-13T14:36:38;4.40;;;3.63;;
12980;SDS011;6555;50.468;8.480;2022-10-13T14:41:41;3.00;;;2.70;;
12980;SDS011;6555;50.468;8.480;2022-10-13T15:03:56;4.50;;;2.70;;
12980;SDS011;6555;50.468;8.480;2022-10-13T15:09:00;3.47;;;2.90;;
12980;SDS011;6555;50.468;8.480;2022-10-13T16:25:05;4.17;;;2.70;;
12980;SDS011;6555;50.468;8.480;2022-10-13T16:30:13;2.50;;;2.30;;
12980;SDS011;6555;50.468;8.480;2022-10-13T16:35:16;3.13;;;2.40;;
12980;SDS011;6555;50.468;8.480;2022-10-13T16:40:20;3.73;;;2.50;;
12980;SDS011;6555;50.468;8.480;2022-10-13T16:45:23;3.17;;;2.40;;
12980;SDS011;6555;50.468;8.480;2022-10-13T16:50:46;2.37;;;2.17;;
12980;SDS011;6555;50.468;8.480;2022-10-13T16:55:56;3.47;;;2.23;;
12980;SDS011;6555;50.468;8.480;2022-10-13T17:01:03;4.10;;;2.77;;
12980;SDS011;6555;50.468;8.480;2022-10-13T17:06:12;3.03;;;2.73;;
12980;SDS011;6555;50.468;8.480;2022-10-13T17:11:19;3.30;;;2.70;;
12980;SDS011;6555;50.468;8.480;2022-10-13T17:16:23;4.50;;;2.80;;
12980;SDS011;6555;50.468;8.480;2022-10-13T17:21:26;2.53;;;2.33;;
12980;SDS011;6555;50.468;8.480;2022-10-13T17:26:31;3.33;;;2.87;;
12980;SDS011;6555;50.468;8.480;2022-10-13T17:31:36;3.47;;;2.33;;
12980;SDS011;6555;50.468;8.480;2022-10-13T17:36:42;2.80;;;2.13;;
12980;SDS011;6555;50.468;8.480;2022-10-13T17:41:46;2.90;;;2.20;;
12980;SDS011;6555;50.468;8.480;2022-10-13T17:46:52;3.23;;;2.50;;
12980;SDS011;6555;50.468;8.480;2022-10-13T17:51:55;4.67;;;2.13;;
12980;SDS011;6555;50.468;8.480;2022-10-13T17:56:59;2.67;;;2.47;;
12980;SDS011;6555;50.468;8.480;2022-10-13T18:02:02;2.30;;;2.10;;
12980;SDS011;6555;50.468;8.480;2022-10-13T18:07:05;4.23;;;2.23;;
12980;SDS011;6555;50.468;8.480;2022-10-13T18:12:09;2.70;;;2.50;;
12980;SDS011;6555;50.468;8.480;2022-10-13T18:17:14;5.20;;;2.37;;
12980;SDS011;6555;50.468;8.480;2022-10-13T18:22:17;3.40;;;2.43;;
12980;SDS011;6555;50.468;8.480;2022-10-13T18:27:21;2.70;;;2.13;;
12980;SDS011;6555;50.468;8.480;2022-10-13T18:32:24;2.53;;;2.33;;
12980;SDS011;6555;50.468;8.480;2022-10-13T18:37:27;4.40;;;2.47;;
12980;SDS011;6555;50.468;8.480;2022-10-13T18:42:32;3.17;;;2.87;;
12980;SDS011;6555;50.468;8.480;2022-10-13T18:47:34;5.13;;;3.43;;
12980;SDS011;6555;50.468;8.480;2022-10-13T18:52:37;5.27;;;3.73;;
12980;SDS011;6555;50.468;8.480;2022-10-13T18:57:42;4.80;;;2.87;;
12980;SDS011;6555;50.468;8.480;2022-10-13T19:02:45;6.47;;;3.03;;
12980;SDS011;6555;50.468;8.480;2022-10-13T19:07:48;3.50;;;3.17;;
12980;SDS011;6555;50.468;8.480;2022-10-13T19:12:52;3.30;;;3.00;;
12980;SDS011;6555;50.468;8.480;2022-10-13T19:17:55;4.83;;;3.00;;
12980;SDS011;6555;50.468;8.480;2022-10-13T19:22:58;4.57;;;2.97;;
12980;SDS011;6555;50.468;8.480;2022-10-13T19:28:02;4.93;;;3.77;;
12980;SDS011;6555;50.468;8.480;2022-10-13T19:33:06;3.63;;;3.17;;
12980;SDS011;6555;50.468;8.480;2022-10-13T19:38:20;3.87;;;3.30;;
12980;SDS011;6555;50.468;8.480;2022-10-13T19:43:24;3.87;;;3.03;;
12980;SDS011;6555;50.468;8.480;2022-10-13T19:48:27;3.83;;;3.30;;
12980;SDS011;6555;50.468;8.480;2022-10-13T19:53:30;3.10;;;2.80;;
12980;SDS011;6555;50.468;8.480;2022-10-13T19:58:34;3.90;;;3.50;;
12980;SDS011;6555;50.468;8.480;2022-10-13T20:03:37;3.97;;;3.10;;
12980;SDS011;6555;50.468;8.480;2022-10-13T20:08:41;3.10;;;2.80;;
12980;SDS011;6555;50.468;8.480;2022-10-13T20:13:46;2.90;;;2.60;;
12980;SDS011;6555;50.468;8.480;2022-10-13T20:18:50;3.43;;;2.90;;
12980;SDS011;6555;50.468;8.480;2022-10-13T20:23:54;3.13;;;2.63;;
12980;SDS011;6555;50.468;8.480;2022-10-13T20:29:00;2.87;;;2.67;;
12980;SDS011;6555;50.468;8.480;2022-10-13T20:34:03;2.60;;;2.03;;
12980;SDS011;6555;50.468;8.480;2022-10-13T20:39:06;2.60;;;2.40;;
12980;SDS011;6555;50.468;8.480;2022-10-13T20:44:10;2.37;;;2.10;;
12980;SDS011;6555;50.468;8.480;2022-10-13T20:49:13;2.20;;;2.00;;
12980;SDS011;6555;50.468;8.480;2022-10-13T20:54:17;1.97;;;1.87;;
12980;SDS011;6555;50.468;8.480;2022-10-13T20:59:21;2.40;;;2.20;;
12980;SDS011;6555;50.468;8.480;2022-10-13T21:04:24;2.53;;;2.03;;
12980;SDS011;6555;50.468;8.480;2022-10-13T21:09:27;2.27;;;1.97;;
12980;SDS011;6555;50.468;8.480;2022-10-13T21:14:32;2.67;;;1.83;;
12980;SDS011;6555;50.468;8.480;2022-10-13T21:19:35;2.50;;;1.60;;
12980;SDS011;6555;50.468;8.480;2022-10-13T21:24:38;2.37;;;1.90;;
12980;SDS011;6555;50.468;8.480;2022-10-13T21:29:42;3.07;;;2.40;;
12980;SDS011;6555;50.468;8.480;2022-10-13T21:34:46;2.03;;;1.83;;
12980;SDS011;6555;50.468;8.480;2022-10-13T21:39:52;2.10;;;1.90;;
12980;SDS011;6555;50.468;8.480;2022-10-13T21:44:56;2.63;;;2.13;;
12980;SDS011;6555;50.468;8.480;2022-10-13T21:49:59;2.07;;;1.87;;
12980;SDS011;6555;50.468;8.480;2022-10-13T21:55:03;2.10;;;1.90;;
12980;SDS011;6555;50.468;8.480;2022-10-13T22:00:09;3.70;;;2.10;;
12980;SDS011;6555;50.468;8.480;2022-10-13T22:05:13;2.13;;;1.97;;
12980;SDS011;6555;50.468;8.480;2022-10-13T22:10:21;2.50;;;1.97;;
12980;SDS011;6555;50.468;8.480;2022-10-13T22:15:26;2.33;;;1.90;;
12980;SDS011;6555;50.468;8.480;2022-10-13T22:20:29;2.30;;;1.83;;
12980;SDS011;6555;50.468;8.480;2022-10-13T22:25:41;2.80;;;1.90;;
12980;SDS011;6555;50.468;8.480;2022-10-13T22:30:46;1.97;;;1.40;;
12980;SDS011;6555;50.468;8.480;2022-10-13T22:35:49;2.30;;;1.90;;
12980;SDS011;6555;50.468;8.480;2022-10-13T22:40:58;3.93;;;2.30;;
12980;SDS011;6555;50.468;8.480;2022-10-13T22:46:04;2.50;;;2.00;;
12980;SDS011;6555;50.468;8.480;2022-10-13T22:51:08;1.67;;;1.53;;
12980;SDS011;6555;50.468;8.480;2022-10-13T22:56:13;1.70;;;1.40;;
12980;SDS011;6555;50.468;8.480;2022-10-13T23:01:18;1.80;;;1.40;;
12980;SDS011;6555;50.468;8.480;2022-10-13T23:06:23;1.70;;;1.60;;
12980;SDS011;6555;50.468;8.480;2022-10-13T23:11:27;1.43;;;1.33;;
12980;SDS011;6555;50.468;8.480;2022-10-13T23:16:32;4.23;;;1.83;;
12980;SDS011;6555;50.468;8.480;2022-10-13T23:21:35;1.43;;;1.30;;
12980;SDS011;6555;50.468;8.480;2022-10-13T23:26:38;1.90;;;1.50;;
12980;SDS011;6555;50.468;8.480;2022-10-13T23:31:42;1.77;;;1.67;;
12980;SDS011;6555;50.468;8.480;2022-10-13T23:36:45;1.53;;;1.43;;
12980;SDS011;6555;50.468;8.480;2022-10-13T23:41:48;3.50;;;1.90;;
12980;SDS011;6555;50.468;8.480;2022-10-13T23:46:54;2.37;;;1.67;;
12980;SDS011;6555;50.468;8.480;2022-10-13T23:51:57;1.90;;;1.70;;
12980;SDS011;6555;50.468;8.480;2022-10-13T23:57:00;3.13;;;2.30;;
